Forseti — V2PV4 — position and weather

sailwx.info

Track history (hours):
 
Tides and Currents Weather Stations Pressure Air Temp Water Temp Dewpoint Dewpoint Depression Visibility Wind Speed Wind Dir Waves Ship Positions

Forseti

Last reported at 2016-Jul-07 02:13 UTC. Time now 2016-Jul-25 14:00 UTC.
Position N 55°27' E 018°40'.
Warning: this ship's position is 18 days out of date.

Length 85 m; draft 5.6 m.

Type: Cargo ship. MMSI: 304010297.

Date/timePositionNaut miles runAvg speedWind from/ knotsBaromVisibWave heightAir tempDewpointWater temp
2016-Jul-07 02:13N 55°27' E 018°40'6 9.9
2016-Jul-07 01:33N 55°24' E 018°31'183 5.7
2016-Jul-05 17:28N 54°02' E 013°46'0 0.0
2016-Jul-05 13:03N 54°02' E 013°46'0 0.0
2016-Jul-05 12:33N 54°02' E 013°46'0 0.0
2016-Jul-05 11:33N 54°02' E 013°46'0 0.0
2016-Jul-05 10:33N 54°02' E 013°46'0 0.0
2016-Jul-05 09:33N 54°02' E 013°46'0 0.0
2016-Jul-05 08:33N 54°02' E 013°46'0 0.0
2016-Jul-05 07:33N 54°02' E 013°46'0 0.0
2016-Jul-05 06:33N 54°02' E 013°46'0 0.0
2016-Jul-05 04:33N 54°02' E 013°46'0 0.0
2016-Jul-05 03:33N 54°02' E 013°46'0 0.0
2016-Jul-05 02:33N 54°02' E 013°46'0 0.0
2016-Jul-05 01:30N 54°02' E 013°46'0 0.0
2016-Jul-05 00:30N 54°02' E 013°46'0 0.0
2016-Jul-04 23:33N 54°02' E 013°46'0 0.0
2016-Jul-04 22:33N 54°02' E 013°46'0 0.0
2016-Jul-04 21:33N 54°02' E 013°46'0 0.0
2016-Jul-04 20:30N 54°02' E 013°46'0 0.0
2016-Jul-04 19:33N 54°02' E 013°46'0 0.0
2016-Jul-04 18:33N 54°02' E 013°46'0 0.0
2016-Jul-04 17:33N 54°02' E 013°46'0 0.0
2016-Jul-04 16:33N 54°02' E 013°46'0 0.0
2016-Jul-04 15:33N 54°02' E 013°46'0 0.0
2016-Jul-04 14:33N 54°02' E 013°46'0 0.0
2016-Jul-04 13:33N 54°02' E 013°46'0 0.0
2016-Jul-04 12:33N 54°02' E 013°46'0 0.0
2016-Jul-04 11:27N 54°02' E 013°46'0 0.0
2016-Jul-04 10:33N 54°02' E 013°46'0 0.0
2016-Jul-04 09:27N 54°02' E 013°46'0 0.0
2016-Jul-04 08:33N 54°02' E 013°46'0 0.0
2016-Jul-04 07:33N 54°02' E 013°46'0 0.0
2016-Jul-04 06:34N 54°02' E 013°46'77 6.9
2016-Jul-03 19:23N 55°14' E 012°55'8 9.7
2016-Jul-03 18:34N 55°17' E 012°42'7 7.3
2016-Jul-03 17:33N 55°24' E 012°38'9 9.2
2016-Jul-03 16:34N 55°33' E 012°42'10 9.5
2016-Jul-03 15:34N 55°42' E 012°41'9 9.5
2016-Jul-03 14:34N 55°51' E 012°39'10 9.7
2016-Jul-03 13:33N 56°01' E 012°38'9 9.3
2016-Jul-03 12:34N 56°08' E 012°27'1010.0
2016-Jul-03 11:33N 56°14' E 012°12'72 8.9
2016-Jul-03 03:27N 57°22' E 011°26'7 8.2
2016-Jul-03 02:33N 57°28' E 011°21'9 8.7
2016-Jul-03 01:33N 57°34' E 011°09'9 8.5
2016-Jul-03 00:33N 57°40' E 010°57'261 9.0
2016-Jul-01 19:28N 54°34' E 005°30'9 9.7
2016-Jul-01 18:33N 54°26' E 005°24'13 9.7
2016-Jul-01 17:15N 54°14' E 005°15'7 9.8
2016-Jul-01 16:34N 54°08' E 005°11'10 9.7
2016-Jul-01 15:33N 53°59' E 005°04'10 9.6
2016-Jul-01 14:31N 53°50' E 004°59'147 8.7
2016-Jun-30 21:33N 51°34' E 003°25'9 8.7
2016-Jun-30 20:33N 51°27' E 003°32'6 6.4
2016-Jun-30 19:33N 51°24' E 003°42'6 6.3
2016-Jun-30 18:34N 51°20' E 003°49'0 0.5
2016-Jun-30 17:34N 51°19' E 003°49'5 5.0
2016-Jun-30 16:34N 51°14' E 003°49'7 7.2
2016-Jun-30 15:33N 51°07' E 003°46'2 2.0
2016-Jun-30 14:28N 51°05' E 003°44'0 0.0
2016-Jun-30 13:31N 51°05' E 003°44'0 0.0
2016-Jun-30 12:34N 51°05' E 003°44'0 0.0
2016-Jun-30 11:31N 51°05' E 003°44'0 0.0
2016-Jun-30 10:33N 51°05' E 003°44'0 0.0
2016-Jun-30 09:30N 51°05' E 003°44'0 0.0
2016-Jun-30 08:33N 51°05' E 003°44'0 0.0
2016-Jun-30 07:33N 51°05' E 003°44'0 0.0
2016-Jun-30 06:33N 51°05' E 003°44'0 0.0
2016-Jun-30 05:33N 51°05' E 003°44'0 0.0
2016-Jun-30 04:33N 51°05' E 003°44'0 0.0
2016-Jun-30 03:33N 51°05' E 003°44'0 0.0
2016-Jun-30 02:33N 51°05' E 003°44'0 0.0
2016-Jun-30 01:33N 51°05' E 003°44'0 0.0
2016-Jun-30 00:33N 51°05' E 003°44'0 0.0
2016-Jun-29 23:33N 51°05' E 003°44'0 0.0
2016-Jun-29 22:30N 51°05' E 003°44'0 0.0
2016-Jun-29 21:33N 51°05' E 003°44'5 5.0
2016-Jun-29 20:33N 51°10' E 003°47'8 8.1
2016-Jun-29 19:34N 51°18' E 003°50'3 2.6
2016-Jun-29 18:33N 51°20' E 003°49'9 9.2
2016-Jun-29 17:33N 51°25' E 003°37'10 9.9
2016-Jun-29 16:33N 51°24' E 003°21'10 9.5
2016-Jun-29 15:33N 51°22' E 003°06'9 9.0
2016-Jun-29 14:33N 51°21' E 002°52'8 7.6
2016-Jun-29 13:28N 51°22' E 002°39'14 6.6
2016-Jun-29 11:23N 51°18' E 002°17'810.1
2016-Jun-29 10:33N 51°14' E 002°06'1110.7
2016-Jun-29 09:33N 51°08' E 001°51'1111.2
2016-Jun-29 08:33N 51°00' E 001°39'6510.7
2016-Jun-29 02:25N 50°20' E 000°17'1011.1
2016-Jun-29 01:33N 50°18' E 000°02'1110.6
2016-Jun-29 00:29N 50°21' W 000°15'36 8.7
2016-Jun-28 20:24N 50°28' W 001°10'6 7.1
2016-Jun-28 19:33N 50°30' W 001°19'9 7.2
2016-Jun-28 18:21N 50°33' W 001°31'7 8.4
2016-Jun-28 17:33N 50°35' W 001°41'9 9.1
2016-Jun-28 16:33N 50°39' W 001°54'5 4.9
2016-Jun-28 15:33N 50°43' W 001°59'0 0.0
2016-Jun-28 14:33N 50°43' W 001°59'0 0.0
2016-Jun-28 13:33N 50°43' W 001°59'0 0.0
2016-Jun-28 12:32N 50°43' W 001°59'0 0.0
2016-Jun-28 11:32N 50°43' W 001°59'0 0.0
2016-Jun-28 10:32N 50°43' W 001°59'0 0.0
2016-Jun-28 09:32N 50°43' W 001°59'0 0.0
2016-Jun-28 08:32N 50°43' W 001°59'0 0.0
2016-Jun-28 07:32N 50°43' W 001°59'0 0.0
2016-Jun-28 06:32N 50°43' W 001°59'0 0.0
2016-Jun-28 04:29N 50°43' W 001°59'0 0.0
2016-Jun-28 03:29N 50°43' W 001°59'0 0.0
2016-Jun-28 02:23N 50°43' W 001°59'0 0.0
2016-Jun-28 01:29N 50°43' W 001°59'0 0.0
2016-Jun-28 00:23N 50°43' W 001°59'0 0.0
2016-Jun-27 23:29N 50°43' W 001°59'0 0.0
2016-Jun-27 22:29N 50°43' W 001°59'0 0.0
2016-Jun-27 21:26N 50°43' W 001°59'0 0.0
2016-Jun-27 20:29N 50°43' W 001°59'0 0.0
2016-Jun-27 19:29N 50°43' W 001°59'0 0.0
2016-Jun-27 18:32N 50°43' W 001°59'0 0.0
2016-Jun-27 17:29N 50°43' W 001°59'0 0.0
2016-Jun-27 16:32N 50°43' W 001°59'0 0.0
2016-Jun-27 15:32N 50°43' W 001°59'0 0.0
2016-Jun-27 14:32N 50°43' W 001°59'0 0.0
2016-Jun-27 13:32N 50°43' W 001°59'0 0.0
2016-Jun-27 12:14N 50°43' W 001°59'0 0.0
2016-Jun-27 11:32N 50°43' W 001°59'0 0.0
2016-Jun-27 10:14N 50°43' W 001°59'0 0.0
2016-Jun-27 09:32N 50°43' W 001°59'0 0.0
2016-Jun-27 08:32N 50°43' W 001°59'0 0.0
2016-Jun-27 07:29N 50°43' W 001°59'0 0.0
2016-Jun-27 06:32N 50°43' W 001°59'0 0.0
2016-Jun-27 05:32N 50°43' W 001°59'0 0.0
2016-Jun-27 04:32N 50°43' W 001°59'0 0.0
2016-Jun-27 03:32N 50°43' W 001°59'0 0.0
2016-Jun-27 02:32N 50°43' W 001°59'  
Track history (hours):
 
Tides and Currents Weather Stations Pressure Air Temp Water Temp Dewpoint Dewpoint Depression Visibility Wind Speed Wind Dir Waves Ship Positions

Forseti

Last reported at 2016-Jul-07 02:13 UTC. Time now 2016-Jul-25 14:00 UTC.
Position N 55°27' E 018°40'.
Warning: this ship's position is 18 days out of date.

Length 85 m; draft 5.6 m.

Type: Cargo ship. MMSI: 304010297.

Date/timePositionNaut miles runAvg speedWind from/ knotsBaromVisibWave heightAir tempDewpointWater temp
2016-Jul-07 02:13N 55°27' E 018°40'6 9.9
2016-Jul-07 01:33N 55°24' E 018°31'183 5.7
2016-Jul-05 17:28N 54°02' E 013°46'0 0.0
2016-Jul-05 13:03N 54°02' E 013°46'0 0.0
2016-Jul-05 12:33N 54°02' E 013°46'0 0.0
2016-Jul-05 11:33N 54°02' E 013°46'0 0.0
2016-Jul-05 10:33N 54°02' E 013°46'0 0.0
2016-Jul-05 09:33N 54°02' E 013°46'0 0.0
2016-Jul-05 08:33N 54°02' E 013°46'0 0.0
2016-Jul-05 07:33N 54°02' E 013°46'0 0.0
2016-Jul-05 06:33N 54°02' E 013°46'0 0.0
2016-Jul-05 04:33N 54°02' E 013°46'0 0.0
2016-Jul-05 03:33N 54°02' E 013°46'0 0.0
2016-Jul-05 02:33N 54°02' E 013°46'0 0.0
2016-Jul-05 01:30N 54°02' E 013°46'0 0.0
2016-Jul-05 00:30N 54°02' E 013°46'0 0.0
2016-Jul-04 23:33N 54°02' E 013°46'0 0.0
2016-Jul-04 22:33N 54°02' E 013°46'0 0.0
2016-Jul-04 21:33N 54°02' E 013°46'0 0.0
2016-Jul-04 20:30N 54°02' E 013°46'0 0.0
2016-Jul-04 19:33N 54°02' E 013°46'0 0.0
2016-Jul-04 18:33N 54°02' E 013°46'0 0.0
2016-Jul-04 17:33N 54°02' E 013°46'0 0.0
2016-Jul-04 16:33N 54°02' E 013°46'0 0.0
2016-Jul-04 15:33N 54°02' E 013°46'0 0.0
2016-Jul-04 14:33N 54°02' E 013°46'0 0.0
2016-Jul-04 13:33N 54°02' E 013°46'0 0.0
2016-Jul-04 12:33N 54°02' E 013°46'0 0.0
2016-Jul-04 11:27N 54°02' E 013°46'0 0.0
2016-Jul-04 10:33N 54°02' E 013°46'0 0.0
2016-Jul-04 09:27N 54°02' E 013°46'0 0.0
2016-Jul-04 08:33N 54°02' E 013°46'0 0.0
2016-Jul-04 07:33N 54°02' E 013°46'0 0.0
2016-Jul-04 06:34N 54°02' E 013°46'77 6.9
2016-Jul-03 19:23N 55°14' E 012°55'8 9.7
2016-Jul-03 18:34N 55°17' E 012°42'7 7.3
2016-Jul-03 17:33N 55°24' E 012°38'9 9.2
2016-Jul-03 16:34N 55°33' E 012°42'10 9.5
2016-Jul-03 15:34N 55°42' E 012°41'9 9.5
2016-Jul-03 14:34N 55°51' E 012°39'10 9.7
2016-Jul-03 13:33N 56°01' E 012°38'9 9.3
2016-Jul-03 12:34N 56°08' E 012°27'1010.0
2016-Jul-03 11:33N 56°14' E 012°12'72 8.9
2016-Jul-03 03:27N 57°22' E 011°26'7 8.2
2016-Jul-03 02:33N 57°28' E 011°21'9 8.7
2016-Jul-03 01:33N 57°34' E 011°09'9 8.5
2016-Jul-03 00:33N 57°40' E 010°57'261 9.0
2016-Jul-01 19:28N 54°34' E 005°30'9 9.7
2016-Jul-01 18:33N 54°26' E 005°24'13 9.7
2016-Jul-01 17:15N 54°14' E 005°15'7 9.8
2016-Jul-01 16:34N 54°08' E 005°11'10 9.7
2016-Jul-01 15:33N 53°59' E 005°04'10 9.6
2016-Jul-01 14:31N 53°50' E 004°59'147 8.7
2016-Jun-30 21:33N 51°34' E 003°25'9 8.7
2016-Jun-30 20:33N 51°27' E 003°32'6 6.4
2016-Jun-30 19:33N 51°24' E 003°42'6 6.3
2016-Jun-30 18:34N 51°20' E 003°49'0 0.5
2016-Jun-30 17:34N 51°19' E 003°49'5 5.0
2016-Jun-30 16:34N 51°14' E 003°49'7 7.2
2016-Jun-30 15:33N 51°07' E 003°46'2 2.0
2016-Jun-30 14:28N 51°05' E 003°44'0 0.0
2016-Jun-30 13:31N 51°05' E 003°44'0 0.0
2016-Jun-30 12:34N 51°05' E 003°44'0 0.0
2016-Jun-30 11:31N 51°05' E 003°44'0 0.0
2016-Jun-30 10:33N 51°05' E 003°44'0 0.0
2016-Jun-30 09:30N 51°05' E 003°44'0 0.0
2016-Jun-30 08:33N 51°05' E 003°44'0 0.0
2016-Jun-30 07:33N 51°05' E 003°44'0 0.0
2016-Jun-30 06:33N 51°05' E 003°44'0 0.0
2016-Jun-30 05:33N 51°05' E 003°44'0 0.0
2016-Jun-30 04:33N 51°05' E 003°44'0 0.0
2016-Jun-30 03:33N 51°05' E 003°44'0 0.0
2016-Jun-30 02:33N 51°05' E 003°44'0 0.0
2016-Jun-30 01:33N 51°05' E 003°44'0 0.0
2016-Jun-30 00:33N 51°05' E 003°44'0 0.0
2016-Jun-29 23:33N 51°05' E 003°44'0 0.0
2016-Jun-29 22:30N 51°05' E 003°44'0 0.0
2016-Jun-29 21:33N 51°05' E 003°44'5 5.0
2016-Jun-29 20:33N 51°10' E 003°47'8 8.1
2016-Jun-29 19:34N 51°18' E 003°50'3 2.6
2016-Jun-29 18:33N 51°20' E 003°49'9 9.2
2016-Jun-29 17:33N 51°25' E 003°37'10 9.9
2016-Jun-29 16:33N 51°24' E 003°21'10 9.5
2016-Jun-29 15:33N 51°22' E 003°06'9 9.0
2016-Jun-29 14:33N 51°21' E 002°52'8 7.6
2016-Jun-29 13:28N 51°22' E 002°39'14 6.6
2016-Jun-29 11:23N 51°18' E 002°17'810.1
2016-Jun-29 10:33N 51°14' E 002°06'1110.7
2016-Jun-29 09:33N 51°08' E 001°51'1111.2
2016-Jun-29 08:33N 51°00' E 001°39'6510.7
2016-Jun-29 02:25N 50°20' E 000°17'1011.1
2016-Jun-29 01:33N 50°18' E 000°02'1110.6
2016-Jun-29 00:29N 50°21' W 000°15'36 8.7
2016-Jun-28 20:24N 50°28' W 001°10'6 7.1
2016-Jun-28 19:33N 50°30' W 001°19'9 7.2
2016-Jun-28 18:21N 50°33' W 001°31'7 8.4
2016-Jun-28 17:33N 50°35' W 001°41'9 9.1
2016-Jun-28 16:33N 50°39' W 001°54'5 4.9
2016-Jun-28 15:33N 50°43' W 001°59'0 0.0
2016-Jun-28 14:33N 50°43' W 001°59'0 0.0
2016-Jun-28 13:33N 50°43' W 001°59'0 0.0
2016-Jun-28 12:32N 50°43' W 001°59'0 0.0
2016-Jun-28 11:32N 50°43' W 001°59'0 0.0
2016-Jun-28 10:32N 50°43' W 001°59'0 0.0
2016-Jun-28 09:32N 50°43' W 001°59'0 0.0
2016-Jun-28 08:32N 50°43' W 001°59'0 0.0
2016-Jun-28 07:32N 50°43' W 001°59'0 0.0
2016-Jun-28 06:32N 50°43' W 001°59'0 0.0
2016-Jun-28 04:29N 50°43' W 001°59'0 0.0
2016-Jun-28 03:29N 50°43' W 001°59'0 0.0
2016-Jun-28 02:23N 50°43' W 001°59'0 0.0
2016-Jun-28 01:29N 50°43' W 001°59'0 0.0
2016-Jun-28 00:23N 50°43' W 001°59'0 0.0
2016-Jun-27 23:29N 50°43' W 001°59'0 0.0
2016-Jun-27 22:29N 50°43' W 001°59'0 0.0
2016-Jun-27 21:26N 50°43' W 001°59'0 0.0
2016-Jun-27 20:29N 50°43' W 001°59'0 0.0
2016-Jun-27 19:29N 50°43' W 001°59'0 0.0
2016-Jun-27 18:32N 50°43' W 001°59'0 0.0
2016-Jun-27 17:29N 50°43' W 001°59'0 0.0
2016-Jun-27 16:32N 50°43' W 001°59'0 0.0
2016-Jun-27 15:32N 50°43' W 001°59'0 0.0
2016-Jun-27 14:32N 50°43' W 001°59'0 0.0
2016-Jun-27 13:32N 50°43' W 001°59'0 0.0
2016-Jun-27 12:14N 50°43' W 001°59'0 0.0
2016-Jun-27 11:32N 50°43' W 001°59'0 0.0
2016-Jun-27 10:14N 50°43' W 001°59'0 0.0
2016-Jun-27 09:32N 50°43' W 001°59'0 0.0
2016-Jun-27 08:32N 50°43' W 001°59'0 0.0
2016-Jun-27 07:29N 50°43' W 001°59'0 0.0
2016-Jun-27 06:32N 50°43' W 001°59'0 0.0
2016-Jun-27 05:32N 50°43' W 001°59'0 0.0
2016-Jun-27 04:32N 50°43' W 001°59'0 0.0
2016-Jun-27 03:32N 50°43' W 001°59'0 0.0
2016-Jun-27 02:32N 50°43' W 001°59'  

Dump ship's entire track history